sensor_id;sensor_type;location;lat;lon;timestamp;P1;durP1;ratioP1;P2;durP2;ratioP2
24559;SDS011;12727;49.934;8.656;2024-02-26T00:00:11;1.60;;;0.90;;
24559;SDS011;12727;49.934;8.656;2024-02-26T00:02:37;3.83;;;1.20;;
24559;SDS011;12727;49.934;8.656;2024-02-26T00:05:06;2.92;;;1.17;;
24559;SDS011;12727;49.934;8.656;2024-02-26T00:07:32;4.00;;;1.10;;
24559;SDS011;12727;49.934;8.656;2024-02-26T00:09:57;2.13;;;1.00;;
24559;SDS011;12727;49.934;8.656;2024-02-26T00:12:23;2.20;;;1.00;;
24559;SDS011;12727;49.934;8.656;2024-02-26T00:14:49;3.03;;;1.00;;
24559;SDS011;12727;49.934;8.656;2024-02-26T00:17:14;3.08;;;1.05;;
24559;SDS011;12727;49.934;8.656;2024-02-26T00:19:40;2.05;;;1.10;;
24559;SDS011;12727;49.934;8.656;2024-02-26T00:22:06;1.70;;;0.93;;
24559;SDS011;12727;49.934;8.656;2024-02-26T00:24:32;1.88;;;0.95;;
24559;SDS011;12727;49.934;8.656;2024-02-26T00:26:58;1.45;;;1.05;;
24559;SDS011;12727;49.934;8.656;2024-02-26T00:29:24;2.58;;;0.90;;
24559;SDS011;12727;49.934;8.656;2024-02-26T00:31:50;2.63;;;1.25;;
24559;SDS011;12727;49.934;8.656;2024-02-26T00:34:16;2.17;;;1.00;;
24559;SDS011;12727;49.934;8.656;2024-02-26T00:36:41;3.75;;;1.10;;
24559;SDS011;12727;49.934;8.656;2024-02-26T00:39:07;1.20;;;0.90;;
24559;SDS011;12727;49.934;8.656;2024-02-26T00:41:33;2.08;;;1.20;;
24559;SDS011;12727;49.934;8.656;2024-02-26T00:44:02;3.20;;;1.10;;
24559;SDS011;12727;49.934;8.656;2024-02-26T00:46:28;2.47;;;1.20;;
24559;SDS011;12727;49.934;8.656;2024-02-26T00:48:53;1.77;;;0.93;;
24559;SDS011;12727;49.934;8.656;2024-02-26T00:51:19;3.53;;;1.13;;
24559;SDS011;12727;49.934;8.656;2024-02-26T00:53:44;2.58;;;1.23;;
24559;SDS011;12727;49.934;8.656;2024-02-26T00:56:10;4.40;;;1.02;;
24559;SDS011;12727;49.934;8.656;2024-02-26T00:58:35;1.42;;;1.00;;
24559;SDS011;12727;49.934;8.656;2024-02-26T01:01:01;1.30;;;0.93;;
24559;SDS011;12727;49.934;8.656;2024-02-26T01:03:27;1.70;;;1.08;;
24559;SDS011;12727;49.934;8.656;2024-02-26T01:05:53;2.78;;;1.00;;
24559;SDS011;12727;49.934;8.656;2024-02-26T01:08:19;2.72;;;0.82;;
24559;SDS011;12727;49.934;8.656;2024-02-26T01:10:45;3.72;;;1.27;;
24559;SDS011;12727;49.934;8.656;2024-02-26T01:13:10;2.33;;;1.05;;
24559;SDS011;12727;49.934;8.656;2024-02-26T01:15:36;3.03;;;1.25;;
24559;SDS011;12727;49.934;8.656;2024-02-26T01:18:02;1.77;;;1.15;;
24559;SDS011;12727;49.934;8.656;2024-02-26T01:20:27;2.20;;;1.23;;
24559;SDS011;12727;49.934;8.656;2024-02-26T01:22:53;3.10;;;1.38;;
24559;SDS011;12727;49.934;8.656;2024-02-26T01:25:18;2.05;;;1.30;;
24559;SDS011;12727;49.934;8.656;2024-02-26T01:27:44;2.85;;;1.10;;
24559;SDS011;12727;49.934;8.656;2024-02-26T01:30:10;1.60;;;1.10;;
24559;SDS011;12727;49.934;8.656;2024-02-26T01:32:35;2.00;;;1.10;;
24559;SDS011;12727;49.934;8.656;2024-02-26T01:35:01;3.92;;;1.60;;
24559;SDS011;12727;49.934;8.656;2024-02-26T01:37:32;1.75;;;1.10;;
24559;SDS011;12727;49.934;8.656;2024-02-26T01:39:58;3.20;;;1.17;;
24559;SDS011;12727;49.934;8.656;2024-02-26T01:42:23;2.38;;;1.25;;
24559;SDS011;12727;49.934;8.656;2024-02-26T01:44:49;3.58;;;1.30;;
24559;SDS011;12727;49.934;8.656;2024-02-26T01:47:14;3.03;;;1.27;;
24559;SDS011;12727;49.934;8.656;2024-02-26T01:49:40;3.13;;;1.27;;
24559;SDS011;12727;49.934;8.656;2024-02-26T01:52:06;1.75;;;1.13;;
24559;SDS011;12727;49.934;8.656;2024-02-26T01:54:37;1.88;;;1.10;;
24559;SDS011;12727;49.934;8.656;2024-02-26T01:57:03;2.63;;;1.30;;
24559;SDS011;12727;49.934;8.656;2024-02-26T01:59:30;2.35;;;1.50;;
24559;SDS011;12727;49.934;8.656;2024-02-26T02:01:58;2.08;;;1.30;;
24559;SDS011;12727;49.934;8.656;2024-02-26T02:04:26;2.22;;;1.48;;
24559;SDS011;12727;49.934;8.656;2024-02-26T02:06:52;1.83;;;1.30;;
24559;SDS011;12727;49.934;8.656;2024-02-26T02:09:18;3.85;;;1.48;;
24559;SDS011;12727;49.934;8.656;2024-02-26T02:11:44;3.63;;;1.30;;
24559;SDS011;12727;49.934;8.656;2024-02-26T02:14:10;9.50;;;2.08;;
24559;SDS011;12727;49.934;8.656;2024-02-26T02:16:35;2.30;;;1.38;;
24559;SDS011;12727;49.934;8.656;2024-02-26T02:19:04;4.25;;;1.38;;
24559;SDS011;12727;49.934;8.656;2024-02-26T02:21:29;3.08;;;1.67;;
24559;SDS011;12727;49.934;8.656;2024-02-26T02:23:55;2.45;;;1.23;;
24559;SDS011;12727;49.934;8.656;2024-02-26T02:26:20;2.22;;;1.48;;
24559;SDS011;12727;49.934;8.656;2024-02-26T02:28:46;3.55;;;1.30;;
24559;SDS011;12727;49.934;8.656;2024-02-26T02:31:13;2.22;;;1.30;;
24559;SDS011;12727;49.934;8.656;2024-02-26T02:33:40;1.85;;;1.23;;
24559;SDS011;12727;49.934;8.656;2024-02-26T02:36:06;3.08;;;1.20;;
24559;SDS011;12727;49.934;8.656;2024-02-26T02:38:38;1.90;;;1.30;;
24559;SDS011;12727;49.934;8.656;2024-02-26T02:41:14;2.88;;;1.58;;
24559;SDS011;12727;49.934;8.656;2024-02-26T02:43:39;2.60;;;1.80;;
24559;SDS011;12727;49.934;8.656;2024-02-26T02:46:05;2.67;;;1.60;;
24559;SDS011;12727;49.934;8.656;2024-02-26T02:48:30;2.28;;;1.40;;
24559;SDS011;12727;49.934;8.656;2024-02-26T02:50:56;3.08;;;1.77;;
24559;SDS011;12727;49.934;8.656;2024-02-26T02:53:21;4.38;;;1.55;;
24559;SDS011;12727;49.934;8.656;2024-02-26T02:55:47;1.98;;;1.45;;
24559;SDS011;12727;49.934;8.656;2024-02-26T02:58:12;3.28;;;1.50;;
24559;SDS011;12727;49.934;8.656;2024-02-26T03:00:38;3.05;;;1.40;;
24559;SDS011;12727;49.934;8.656;2024-02-26T03:03:03;3.90;;;1.50;;
24559;SDS011;12727;49.934;8.656;2024-02-26T03:05:29;2.30;;;1.38;;
24559;SDS011;12727;49.934;8.656;2024-02-26T03:07:55;3.55;;;1.40;;
24559;SDS011;12727;49.934;8.656;2024-02-26T03:10:20;2.50;;;1.50;;
24559;SDS011;12727;49.934;8.656;2024-02-26T03:12:46;2.38;;;1.48;;
24559;SDS011;12727;49.934;8.656;2024-02-26T03:15:11;2.35;;;1.50;;
24559;SDS011;12727;49.934;8.656;2024-02-26T03:17:37;2.05;;;1.25;;
24559;SDS011;12727;49.934;8.656;2024-02-26T03:20:03;2.33;;;1.27;;
24559;SDS011;12727;49.934;8.656;2024-02-26T03:22:30;2.55;;;1.58;;
24559;SDS011;12727;49.934;8.656;2024-02-26T03:24:55;2.42;;;1.40;;
24559;SDS011;12727;49.934;8.656;2024-02-26T03:27:22;2.65;;;1.50;;
24559;SDS011;12727;49.934;8.656;2024-02-26T03:29:47;5.22;;;1.65;;
24559;SDS011;12727;49.934;8.656;2024-02-26T03:32:13;3.20;;;1.40;;
24559;SDS011;12727;49.934;8.656;2024-02-26T03:34:38;2.20;;;1.48;;
24559;SDS011;12727;49.934;8.656;2024-02-26T03:37:05;2.40;;;1.42;;
24559;SDS011;12727;49.934;8.656;2024-02-26T03:39:31;2.35;;;1.30;;
24559;SDS011;12727;49.934;8.656;2024-02-26T03:41:57;2.38;;;1.48;;
24559;SDS011;12727;49.934;8.656;2024-02-26T03:44:22;3.08;;;1.50;;
24559;SDS011;12727;49.934;8.656;2024-02-26T03:46:48;3.13;;;1.60;;
24559;SDS011;12727;49.934;8.656;2024-02-26T03:49:13;2.47;;;1.42;;
24559;SDS011;12727;49.934;8.656;2024-02-26T03:51:39;3.13;;;1.38;;
24559;SDS011;12727;49.934;8.656;2024-02-26T03:54:04;3.40;;;1.80;;
24559;SDS011;12727;49.934;8.656;2024-02-26T03:56:30;3.63;;;1.88;;
24559;SDS011;12727;49.934;8.656;2024-02-26T03:58:55;2.33;;;1.50;;
24559;SDS011;12727;49.934;8.656;2024-02-26T04:01:21;4.05;;;1.60;;
24559;SDS011;12727;49.934;8.656;2024-02-26T04:03:47;3.03;;;1.67;;
24559;SDS011;12727;49.934;8.656;2024-02-26T04:06:12;2.78;;;1.73;;
24559;SDS011;12727;49.934;8.656;2024-02-26T04:08:43;3.05;;;2.00;;
24559;SDS011;12727;49.934;8.656;2024-02-26T04:11:09;1.80;;;1.50;;
24559;SDS011;12727;49.934;8.656;2024-02-26T04:13:34;3.03;;;1.63;;
24559;SDS011;12727;49.934;8.656;2024-02-26T04:16:00;2.15;;;1.52;;
24559;SDS011;12727;49.934;8.656;2024-02-26T04:18:28;2.17;;;1.67;;
24559;SDS011;12727;49.934;8.656;2024-02-26T04:20:54;2.95;;;1.92;;
24559;SDS011;12727;49.934;8.656;2024-02-26T04:23:20;3.60;;;2.08;;
24559;SDS011;12727;49.934;8.656;2024-02-26T04:25:45;2.92;;;1.77;;
24559;SDS011;12727;49.934;8.656;2024-02-26T04:28:11;3.53;;;1.90;;
24559;SDS011;12727;49.934;8.656;2024-02-26T04:30:37;2.90;;;1.60;;
24559;SDS011;12727;49.934;8.656;2024-02-26T04:33:03;2.42;;;1.65;;
24559;SDS011;12727;49.934;8.656;2024-02-26T04:35:28;5.03;;;1.67;;
24559;SDS011;12727;49.934;8.656;2024-02-26T04:37:54;3.63;;;1.63;;
24559;SDS011;12727;49.934;8.656;2024-02-26T04:40:20;4.50;;;1.80;;
24559;SDS011;12727;49.934;8.656;2024-02-26T04:42:45;4.18;;;1.77;;
24559;SDS011;12727;49.934;8.656;2024-02-26T04:45:11;2.30;;;1.70;;
24559;SDS011;12727;49.934;8.656;2024-02-26T04:47:36;5.05;;;1.50;;
24559;SDS011;12727;49.934;8.656;2024-02-26T04:50:02;4.25;;;2.17;;
24559;SDS011;12727;49.934;8.656;2024-02-26T04:52:28;3.58;;;1.90;;
24559;SDS011;12727;49.934;8.656;2024-02-26T04:54:53;3.63;;;2.20;;
24559;SDS011;12727;49.934;8.656;2024-02-26T04:57:19;4.18;;;2.15;;
24559;SDS011;12727;49.934;8.656;2024-02-26T04:59:45;4.00;;;2.50;;
24559;SDS011;12727;49.934;8.656;2024-02-26T05:02:11;5.70;;;2.55;;
24559;SDS011;12727;49.934;8.656;2024-02-26T05:04:37;7.15;;;2.47;;
24559;SDS011;12727;49.934;8.656;2024-02-26T05:07:03;4.63;;;2.03;;
24559;SDS011;12727;49.934;8.656;2024-02-26T05:09:29;4.80;;;2.53;;
24559;SDS011;12727;49.934;8.656;2024-02-26T05:11:54;4.53;;;2.63;;
24559;SDS011;12727;49.934;8.656;2024-02-26T05:14:20;3.85;;;2.67;;
24559;SDS011;12727;49.934;8.656;2024-02-26T05:16:46;3.65;;;2.90;;
24559;SDS011;12727;49.934;8.656;2024-02-26T05:19:12;6.03;;;2.90;;
24559;SDS011;12727;49.934;8.656;2024-02-26T05:21:37;4.45;;;2.67;;
24559;SDS011;12727;49.934;8.656;2024-02-26T05:24:03;3.78;;;2.63;;
24559;SDS011;12727;49.934;8.656;2024-02-26T05:26:29;4.82;;;3.53;;
24559;SDS011;12727;49.934;8.656;2024-02-26T05:28:54;7.32;;;3.50;;
24559;SDS011;12727;49.934;8.656;2024-02-26T05:31:24;4.60;;;3.53;;
24559;SDS011;12727;49.934;8.656;2024-02-26T05:33:50;6.00;;;3.67;;
24559;SDS011;12727;49.934;8.656;2024-02-26T05:36:19;6.72;;;3.65;;
24559;SDS011;12727;49.934;8.656;2024-02-26T05:38:50;8.52;;;3.53;;
24559;SDS011;12727;49.934;8.656;2024-02-26T05:41:16;6.28;;;3.80;;
24559;SDS011;12727;49.934;8.656;2024-02-26T05:43:47;6.13;;;3.83;;
24559;SDS011;12727;49.934;8.656;2024-02-26T05:46:16;6.57;;;3.95;;
24559;SDS011;12727;49.934;8.656;2024-02-26T05:48:42;5.93;;;4.15;;
24559;SDS011;12727;49.934;8.656;2024-02-26T05:51:09;6.50;;;4.45;;
24559;SDS011;12727;49.934;8.656;2024-02-26T05:53:34;7.80;;;4.32;;
24559;SDS011;12727;49.934;8.656;2024-02-26T05:56:00;6.78;;;3.80;;
24559;SDS011;12727;49.934;8.656;2024-02-26T05:58:25;6.65;;;4.07;;
24559;SDS011;12727;49.934;8.656;2024-02-26T06:00:51;7.03;;;3.97;;
24559;SDS011;12727;49.934;8.656;2024-02-26T06:03:16;8.13;;;4.40;;
24559;SDS011;12727;49.934;8.656;2024-02-26T06:05:42;5.82;;;3.80;;
24559;SDS011;12727;49.934;8.656;2024-02-26T06:08:08;9.30;;;4.35;;
24559;SDS011;12727;49.934;8.656;2024-02-26T06:10:34;5.95;;;3.90;;
24559;SDS011;12727;49.934;8.656;2024-02-26T06:12:59;6.72;;;4.45;;
24559;SDS011;12727;49.934;8.656;2024-02-26T06:15:25;7.82;;;4.78;;
24559;SDS011;12727;49.934;8.656;2024-02-26T06:17:50;8.30;;;4.50;;
24559;SDS011;12727;49.934;8.656;2024-02-26T06:20:16;7.60;;;4.78;;
24559;SDS011;12727;49.934;8.656;2024-02-26T06:22:41;9.25;;;5.65;;
24559;SDS011;12727;49.934;8.656;2024-02-26T06:25:07;7.80;;;5.50;;
24559;SDS011;12727;49.934;8.656;2024-02-26T06:27:33;8.85;;;5.70;;
24559;SDS011;12727;49.934;8.656;2024-02-26T06:29:59;9.60;;;5.20;;
24559;SDS011;12727;49.934;8.656;2024-02-26T06:32:25;8.13;;;5.00;;
24559;SDS011;12727;49.934;8.656;2024-02-26T06:34:52;11.98;;;5.13;;
24559;SDS011;12727;49.934;8.656;2024-02-26T06:37:18;7.15;;;4.88;;
24559;SDS011;12727;49.934;8.656;2024-02-26T06:39:43;8.75;;;4.45;;
24559;SDS011;12727;49.934;8.656;2024-02-26T06:42:09;10.00;;;5.28;;
24559;SDS011;12727;49.934;8.656;2024-02-26T06:44:35;7.88;;;4.82;;
24559;SDS011;12727;49.934;8.656;2024-02-26T06:47:00;7.35;;;4.97;;
24559;SDS011;12727;49.934;8.656;2024-02-26T06:49:26;9.45;;;5.43;;
24559;SDS011;12727;49.934;8.656;2024-02-26T06:51:52;10.75;;;4.90;;
24559;SDS011;12727;49.934;8.656;2024-02-26T06:54:18;9.07;;;6.00;;
24559;SDS011;12727;49.934;8.656;2024-02-26T06:56:43;9.10;;;6.10;;
24559;SDS011;12727;49.934;8.656;2024-02-26T06:59:09;8.50;;;5.47;;
24559;SDS011;12727;49.934;8.656;2024-02-26T07:01:35;8.55;;;5.22;;
24559;SDS011;12727;49.934;8.656;2024-02-26T07:04:00;9.65;;;5.53;;
24559;SDS011;12727;49.934;8.656;2024-02-26T07:06:29;9.18;;;5.70;;
24559;SDS011;12727;49.934;8.656;2024-02-26T07:08:55;11.10;;;5.72;;
24559;SDS011;12727;49.934;8.656;2024-02-26T07:11:20;10.32;;;6.53;;
24559;SDS011;12727;49.934;8.656;2024-02-26T07:13:46;9.15;;;6.03;;
24559;SDS011;12727;49.934;8.656;2024-02-26T07:16:12;10.15;;;6.82;;
24559;SDS011;12727;49.934;8.656;2024-02-26T07:18:40;7.63;;;6.05;;
24559;SDS011;12727;49.934;8.656;2024-02-26T07:21:06;9.70;;;6.07;;
24559;SDS011;12727;49.934;8.656;2024-02-26T07:23:32;10.30;;;6.38;;
24559;SDS011;12727;49.934;8.656;2024-02-26T07:25:57;12.27;;;6.45;;
24559;SDS011;12727;49.934;8.656;2024-02-26T07:28:24;9.23;;;5.95;;
24559;SDS011;12727;49.934;8.656;2024-02-26T07:30:50;10.85;;;6.15;;
24559;SDS011;12727;49.934;8.656;2024-02-26T07:33:15;10.27;;;5.65;;
24559;SDS011;12727;49.934;8.656;2024-02-26T07:35:41;10.38;;;6.32;;
24559;SDS011;12727;49.934;8.656;2024-02-26T07:38:06;9.95;;;6.05;;
24559;SDS011;12727;49.934;8.656;2024-02-26T07:40:32;9.48;;;6.35;;
24559;SDS011;12727;49.934;8.656;2024-02-26T07:42:57;10.20;;;6.40;;
24559;SDS011;12727;49.934;8.656;2024-02-26T07:45:23;9.43;;;6.47;;
24559;SDS011;12727;49.934;8.656;2024-02-26T07:47:49;10.32;;;6.40;;
24559;SDS011;12727;49.934;8.656;2024-02-26T07:50:16;13.57;;;6.88;;
24559;SDS011;12727;49.934;8.656;2024-02-26T07:52:42;9.90;;;5.47;;
24559;SDS011;12727;49.934;8.656;2024-02-26T07:55:07;11.20;;;6.32;;
24559;SDS011;12727;49.934;8.656;2024-02-26T07:57:33;11.48;;;7.18;;
24559;SDS011;12727;49.934;8.656;2024-02-26T07:59:59;11.68;;;7.40;;
24559;SDS011;12727;49.934;8.656;2024-02-26T08:02:25;10.40;;;6.32;;
24559;SDS011;12727;49.934;8.656;2024-02-26T08:04:50;8.98;;;5.78;;
24559;SDS011;12727;49.934;8.656;2024-02-26T08:07:16;9.25;;;6.03;;
24559;SDS011;12727;49.934;8.656;2024-02-26T08:09:41;11.63;;;6.50;;
24559;SDS011;12727;49.934;8.656;2024-02-26T08:12:07;10.25;;;6.38;;
24559;SDS011;12727;49.934;8.656;2024-02-26T08:14:33;11.32;;;6.07;;
24559;SDS011;12727;49.934;8.656;2024-02-26T08:16:59;11.18;;;6.47;;
24559;SDS011;12727;49.934;8.656;2024-02-26T08:19:24;10.50;;;6.57;;
24559;SDS011;12727;49.934;8.656;2024-02-26T08:21:51;10.85;;;7.10;;
24559;SDS011;12727;49.934;8.656;2024-02-26T08:24:16;12.10;;;7.15;;
24559;SDS011;12727;49.934;8.656;2024-02-26T08:26:42;10.48;;;6.97;;
24559;SDS011;12727;49.934;8.656;2024-02-26T08:29:07;9.50;;;7.18;;
24559;SDS011;12727;49.934;8.656;2024-02-26T08:31:33;13.35;;;8.02;;
24559;SDS011;12727;49.934;8.656;2024-02-26T08:34:02;12.43;;;7.88;;
24559;SDS011;12727;49.934;8.656;2024-02-26T08:36:32;11.20;;;7.75;;
24559;SDS011;12727;49.934;8.656;2024-02-26T08:38:58;12.23;;;7.57;;
24559;SDS011;12727;49.934;8.656;2024-02-26T08:41:24;11.23;;;8.05;;
24559;SDS011;12727;49.934;8.656;2024-02-26T08:43:50;10.18;;;7.03;;
24559;SDS011;12727;49.934;8.656;2024-02-26T08:46:15;11.23;;;6.82;;
24559;SDS011;12727;49.934;8.656;2024-02-26T08:48:41;10.05;;;6.05;;
24559;SDS011;12727;49.934;8.656;2024-02-26T08:51:07;10.43;;;6.38;;
24559;SDS011;12727;49.934;8.656;2024-02-26T08:53:36;11.10;;;7.72;;
24559;SDS011;12727;49.934;8.656;2024-02-26T08:56:02;12.18;;;7.10;;
24559;SDS011;12727;49.934;8.656;2024-02-26T08:58:28;12.13;;;6.55;;
24559;SDS011;12727;49.934;8.656;2024-02-26T09:00:53;11.55;;;6.68;;
24559;SDS011;12727;49.934;8.656;2024-02-26T09:03:19;10.25;;;6.78;;
24559;SDS011;12727;49.934;8.656;2024-02-26T09:05:45;11.07;;;6.70;;
24559;SDS011;12727;49.934;8.656;2024-02-26T09:08:11;9.50;;;6.63;;
24559;SDS011;12727;49.934;8.656;2024-02-26T09:10:36;8.95;;;6.28;;
24559;SDS011;12727;49.934;8.656;2024-02-26T09:13:03;12.18;;;6.57;;
24559;SDS011;12727;49.934;8.656;2024-02-26T09:15:28;10.32;;;6.78;;
24559;SDS011;12727;49.934;8.656;2024-02-26T09:17:55;8.93;;;5.53;;
24559;SDS011;12727;49.934;8.656;2024-02-26T09:20:21;10.45;;;6.60;;
24559;SDS011;12727;49.934;8.656;2024-02-26T09:22:48;10.63;;;5.60;;
24559;SDS011;12727;49.934;8.656;2024-02-26T09:25:14;10.90;;;6.00;;
24559;SDS011;12727;49.934;8.656;2024-02-26T09:27:46;12.68;;;6.65;;
24559;SDS011;12727;49.934;8.656;2024-02-26T09:30:12;9.07;;;6.07;;
24559;SDS011;12727;49.934;8.656;2024-02-26T09:32:38;10.40;;;5.93;;
24559;SDS011;12727;49.934;8.656;2024-02-26T09:35:07;10.25;;;6.72;;
24559;SDS011;12727;49.934;8.656;2024-02-26T09:37:33;9.65;;;6.57;;
24559;SDS011;12727;49.934;8.656;2024-02-26T09:39:59;9.85;;;6.25;;
24559;SDS011;12727;49.934;8.656;2024-02-26T09:42:26;10.20;;;6.63;;
24559;SDS011;12727;49.934;8.656;2024-02-26T09:44:55;10.77;;;6.65;;
24559;SDS011;12727;49.934;8.656;2024-02-26T09:47:23;10.23;;;6.70;;
24559;SDS011;12727;49.934;8.656;2024-02-26T09:49:52;10.13;;;6.53;;
24559;SDS011;12727;49.934;8.656;2024-02-26T09:52:19;7.93;;;4.60;;
24559;SDS011;12727;49.934;8.656;2024-02-26T09:54:49;11.90;;;6.75;;
24559;SDS011;12727;49.934;8.656;2024-02-26T09:57:15;12.30;;;6.68;;
24559;SDS011;12727;49.934;8.656;2024-02-26T09:59:42;10.00;;;5.72;;
24559;SDS011;12727;49.934;8.656;2024-02-26T10:02:09;9.55;;;6.22;;
24559;SDS011;12727;49.934;8.656;2024-02-26T10:04:38;10.32;;;5.43;;
24559;SDS011;12727;49.934;8.656;2024-02-26T10:07:06;9.25;;;5.95;;
24559;SDS011;12727;49.934;8.656;2024-02-26T10:09:36;8.68;;;5.88;;
24559;SDS011;12727;49.934;8.656;2024-02-26T10:12:02;8.50;;;5.72;;
24559;SDS011;12727;49.934;8.656;2024-02-26T10:14:29;8.70;;;5.40;;
24559;SDS011;12727;49.934;8.656;2024-02-26T10:16:54;7.97;;;5.80;;
24559;SDS011;12727;49.934;8.656;2024-02-26T10:19:29;8.30;;;6.03;;
24559;SDS011;12727;49.934;8.656;2024-02-26T10:21:56;9.48;;;5.20;;
24559;SDS011;12727;49.934;8.656;2024-02-26T10:24:23;8.63;;;5.75;;
24559;SDS011;12727;49.934;8.656;2024-02-26T10:26:50;7.25;;;5.13;;
24559;SDS011;12727;49.934;8.656;2024-02-26T10:29:16;7.38;;;4.93;;
24559;SDS011;12727;49.934;8.656;2024-02-26T10:31:43;6.85;;;4.85;;
24559;SDS011;12727;49.934;8.656;2024-02-26T10:34:09;7.35;;;4.80;;
24559;SDS011;12727;49.934;8.656;2024-02-26T10:36:35;7.80;;;5.32;;
24559;SDS011;12727;49.934;8.656;2024-02-26T10:39:02;8.82;;;5.90;;
24559;SDS011;12727;49.934;8.656;2024-02-26T10:41:29;8.70;;;5.28;;
24559;SDS011;12727;49.934;8.656;2024-02-26T10:43:55;8.32;;;5.53;;
24559;SDS011;12727;49.934;8.656;2024-02-26T10:46:21;7.10;;;4.32;;
24559;SDS011;12727;49.934;8.656;2024-02-26T10:48:50;6.43;;;4.78;;
24559;SDS011;12727;49.934;8.656;2024-02-26T10:51:16;6.15;;;4.63;;
24559;SDS011;12727;49.934;8.656;2024-02-26T10:53:58;7.53;;;5.25;;
24559;SDS011;12727;49.934;8.656;2024-02-26T10:56:29;8.23;;;5.43;;
24559;SDS011;12727;49.934;8.656;2024-02-26T10:58:58;6.78;;;4.95;;
24559;SDS011;12727;49.934;8.656;2024-02-26T11:01:24;9.30;;;5.50;;
24559;SDS011;12727;49.934;8.656;2024-02-26T11:03:52;11.32;;;5.80;;
24559;SDS011;12727;49.934;8.656;2024-02-26T11:06:26;8.18;;;5.40;;
24559;SDS011;12727;49.934;8.656;2024-02-26T11:08:53;9.15;;;5.95;;
24559;SDS011;12727;49.934;8.656;2024-02-26T11:11:22;9.70;;;6.10;;
24559;SDS011;12727;49.934;8.656;2024-02-26T11:13:51;8.30;;;5.82;;
24559;SDS011;12727;49.934;8.656;2024-02-26T11:16:22;6.57;;;5.10;;
24559;SDS011;12727;49.934;8.656;2024-02-26T11:18:50;9.07;;;6.03;;
24559;SDS011;12727;49.934;8.656;2024-02-26T11:21:20;7.90;;;5.40;;
24559;SDS011;12727;49.934;8.656;2024-02-26T11:23:52;7.38;;;5.18;;
24559;SDS011;12727;49.934;8.656;2024-02-26T11:26:19;9.10;;;5.18;;
24559;SDS011;12727;49.934;8.656;2024-02-26T11:28:47;7.97;;;5.90;;
24559;SDS011;12727;49.934;8.656;2024-02-26T11:31:14;9.40;;;5.57;;
24559;SDS011;12727;49.934;8.656;2024-02-26T11:33:40;9.20;;;5.90;;
24559;SDS011;12727;49.934;8.656;2024-02-26T11:36:09;9.20;;;5.55;;
24559;SDS011;12727;49.934;8.656;2024-02-26T11:38:36;9.90;;;6.93;;
24559;SDS011;12727;49.934;8.656;2024-02-26T11:41:04;8.07;;;5.53;;
24559;SDS011;12727;49.934;8.656;2024-02-26T11:46:28;9.02;;;5.40;;
24559;SDS011;12727;49.934;8.656;2024-02-26T11:48:56;9.93;;;5.50;;
24559;SDS011;12727;49.934;8.656;2024-02-26T11:51:27;7.93;;;5.28;;
24559;SDS011;12727;49.934;8.656;2024-02-26T11:53:57;8.00;;;5.53;;
24559;SDS011;12727;49.934;8.656;2024-02-26T11:56:24;8.80;;;5.78;;
24559;SDS011;12727;49.934;8.656;2024-02-26T11:58:57;9.63;;;5.43;;
24559;SDS011;12727;49.934;8.656;2024-02-26T12:01:47;8.82;;;5.65;;
24559;SDS011;12727;49.934;8.656;2024-02-26T12:04:15;6.60;;;5.07;;
24559;SDS011;12727;49.934;8.656;2024-02-26T12:06:54;8.55;;;5.40;;
24559;SDS011;12727;49.934;8.656;2024-02-26T12:09:35;8.38;;;4.88;;
24559;SDS011;12727;49.934;8.656;2024-02-26T12:12:02;8.88;;;5.30;;
24559;SDS011;12727;49.934;8.656;2024-02-26T12:14:38;8.07;;;4.88;;
24559;SDS011;12727;49.934;8.656;2024-02-26T12:17:06;8.63;;;4.97;;
24559;SDS011;12727;49.934;8.656;2024-02-26T12:19:34;6.32;;;4.43;;
24559;SDS011;12727;49.934;8.656;2024-02-26T12:22:01;7.78;;;5.03;;
24559;SDS011;12727;49.934;8.656;2024-02-26T12:24:27;6.50;;;4.40;;
24559;SDS011;12727;49.934;8.656;2024-02-26T12:26:52;8.55;;;4.70;;
24559;SDS011;12727;49.934;8.656;2024-02-26T12:29:18;7.80;;;5.15;;
24559;SDS011;12727;49.934;8.656;2024-02-26T12:31:43;6.47;;;4.68;;
24559;SDS011;12727;49.934;8.656;2024-02-26T12:34:09;7.05;;;4.50;;
24559;SDS011;12727;49.934;8.656;2024-02-26T12:36:35;6.82;;;4.40;;
24559;SDS011;12727;49.934;8.656;2024-02-26T12:39:04;7.00;;;4.25;;
24559;SDS011;12727;49.934;8.656;2024-02-26T12:41:31;6.30;;;4.57;;
24559;SDS011;12727;49.934;8.656;2024-02-26T12:43:57;8.48;;;4.95;;
24559;SDS011;12727;49.934;8.656;2024-02-26T12:46:24;7.38;;;4.22;;
24559;SDS011;12727;49.934;8.656;2024-02-26T12:48:49;6.97;;;4.93;;
24559;SDS011;12727;49.934;8.656;2024-02-26T12:51:15;7.65;;;4.57;;
24559;SDS011;12727;49.934;8.656;2024-02-26T12:53:44;8.40;;;5.00;;
24559;SDS011;12727;49.934;8.656;2024-02-26T12:56:11;8.50;;;4.85;;
24559;SDS011;12727;49.934;8.656;2024-02-26T12:58:39;7.50;;;4.40;;
24559;SDS011;12727;49.934;8.656;2024-02-26T13:01:06;5.78;;;4.00;;
24559;SDS011;12727;49.934;8.656;2024-02-26T13:03:35;6.63;;;4.18;;
24559;SDS011;12727;49.934;8.656;2024-02-26T13:06:02;5.82;;;3.97;;
24559;SDS011;12727;49.934;8.656;2024-02-26T13:08:28;5.95;;;4.38;;
24559;SDS011;12727;49.934;8.656;2024-02-26T13:10:53;8.23;;;4.65;;
24559;SDS011;12727;49.934;8.656;2024-02-26T13:13:19;5.78;;;4.35;;
24559;SDS011;12727;49.934;8.656;2024-02-26T13:15:45;8.25;;;4.90;;
24559;SDS011;12727;49.934;8.656;2024-02-26T13:18:11;6.38;;;4.60;;
24559;SDS011;12727;49.934;8.656;2024-02-26T13:20:41;9.57;;;5.20;;
24559;SDS011;12727;49.934;8.656;2024-02-26T13:23:07;7.38;;;4.50;;
24559;SDS011;12727;49.934;8.656;2024-02-26T13:25:36;6.90;;;5.28;;
24559;SDS011;12727;49.934;8.656;2024-02-26T13:28:14;8.30;;;5.75;;
24559;SDS011;12727;49.934;8.656;2024-02-26T13:30:41;9.23;;;5.63;;
24559;SDS011;12727;49.934;8.656;2024-02-26T13:33:15;7.57;;;5.10;;
24559;SDS011;12727;49.934;8.656;2024-02-26T13:35:41;11.18;;;5.07;;
24559;SDS011;12727;49.934;8.656;2024-02-26T13:38:06;8.35;;;5.65;;
24559;SDS011;12727;49.934;8.656;2024-02-26T13:40:32;8.55;;;5.15;;
24559;SDS011;12727;49.934;8.656;2024-02-26T13:42:59;8.85;;;4.72;;
24559;SDS011;12727;49.934;8.656;2024-02-26T13:45:25;5.97;;;4.55;;
24559;SDS011;12727;49.934;8.656;2024-02-26T13:47:50;7.80;;;4.88;;
24559;SDS011;12727;49.934;8.656;2024-02-26T13:50:16;6.57;;;4.45;;
24559;SDS011;12727;49.934;8.656;2024-02-26T13:52:46;7.20;;;4.70;;
24559;SDS011;12727;49.934;8.656;2024-02-26T13:55:12;6.95;;;4.22;;
24559;SDS011;12727;49.934;8.656;2024-02-26T13:57:39;7.07;;;4.65;;
24559;SDS011;12727;49.934;8.656;2024-02-26T14:00:05;4.95;;;3.65;;
24559;SDS011;12727;49.934;8.656;2024-02-26T14:02:32;7.18;;;4.78;;
24559;SDS011;12727;49.934;8.656;2024-02-26T14:05:01;6.10;;;4.47;;
24559;SDS011;12727;49.934;8.656;2024-02-26T14:07:29;7.03;;;4.32;;
24559;SDS011;12727;49.934;8.656;2024-02-26T14:09:57;7.45;;;4.32;;
24559;SDS011;12727;49.934;8.656;2024-02-26T14:12:23;8.98;;;4.10;;
24559;SDS011;12727;49.934;8.656;2024-02-26T14:14:48;5.68;;;3.92;;
24559;SDS011;12727;49.934;8.656;2024-02-26T14:17:14;6.50;;;4.63;;
24559;SDS011;12727;49.934;8.656;2024-02-26T14:19:40;5.75;;;4.10;;
24559;SDS011;12727;49.934;8.656;2024-02-26T14:22:12;6.97;;;4.40;;
24559;SDS011;12727;49.934;8.656;2024-02-26T14:24:37;6.78;;;4.53;;
24559;SDS011;12727;49.934;8.656;2024-02-26T14:27:04;6.50;;;4.30;;
24559;SDS011;12727;49.934;8.656;2024-02-26T14:29:31;6.70;;;4.00;;
24559;SDS011;12727;49.934;8.656;2024-02-26T14:31:57;6.22;;;3.88;;
24559;SDS011;12727;49.934;8.656;2024-02-26T14:34:22;6.15;;;3.85;;
24559;SDS011;12727;49.934;8.656;2024-02-26T14:36:49;6.25;;;4.05;;
24559;SDS011;12727;49.934;8.656;2024-02-26T14:39:14;6.88;;;4.22;;
24559;SDS011;12727;49.934;8.656;2024-02-26T14:41:40;6.07;;;3.80;;
24559;SDS011;12727;49.934;8.656;2024-02-26T14:44:05;5.70;;;3.90;;